Fairmont, North Carolina
Current Conditions -  °F | °C
As of 2:54 PM on Friday 19 Dec 2014 (Local Time) from KLBT Reporting Station
Clear Clear  
Wind Chill: 60°   Ceiling: Unl
Heat Index: 60°   Visibility: 10mi
Dew Point: 25°   Wind: 3mph
Humidity: 26%   Direction: 30°NNE
Pressure: 30.11"   Gusts: NA
Location:  34.5°N, 79.11°W
Report Text: KLBT 191954Z AUTO 03003KT 10SM CLR 16/M04 A3011 RMK AO2 SLP195 T01561039
Loading
Personal Weather Stations






























Interactive Weather Map New forecast layout! Learn more

10-Day Weather Forecast

Advertisements
Track Severe Weather on mobile